Archival Weather

Randolph Afb

Universal City, Texas (KRND)

Report from: Monday, September 26, 2022 12:55 AM CDT
Current time: Saturday, February 4, 2023 11:09 PM CST

Current weather
Weather history
Weather forecast

Temperature25.9°C (78.6°F)
Dew point20.4°C (68.7°F)
Winds 3 kts (1.5 m/s, 3.5 mph) Southwest (220°)
Visibility10 mi. (16.1 km)
Clouds Sky clear
Altimeter29.98 in.Hg (1015 mB)
Relative humidity72 %
Density altitude1,517 ft. (462 m)
Sea-level pressure101.4 kPa (1014 mB, 29.95 in.Hg)
Max temp last 6 hours33.1°C (91.6°F)
Min temp last 6 hours25.9°C (78.6°F)
Max temp last 24 hours35.2°C (95.4°F)
Min temp last 24 hours21.0°C (69.8°F)
Remarks Fully automated report
Automated weather observing station with precipitation discriminator
Pressure rising more slowly
Flight conditions Visual Meteorological Conditions
Raw dataKRND 260555Z AUTO 22003KT 10SM CLR 26/20 A2998 RMK AO2 SLP143 T02590204 10331 20259 403520210 51006
An unhandled exception has occurred. See browser dev tools for details. Reload 🗙